createdAt,value
2023-01-12T00:00:23.913Z,7.10
2023-01-12T00:04:25.864Z,7.10
2023-01-12T00:08:27.631Z,7.10
2023-01-12T00:12:29.400Z,7.10
2023-01-12T00:16:40.959Z,7.20
2023-01-12T00:20:48.477Z,7.20
2023-01-12T00:24:50.458Z,7.20
2023-01-12T00:28:52.195Z,7.30
2023-01-12T00:32:53.941Z,7.40
2023-01-12T00:36:55.779Z,7.40
2023-01-12T00:40:57.518Z,7.40
2023-01-12T00:45:17.849Z,7.50
2023-01-12T00:49:19.612Z,7.40
2023-01-12T00:53:21.285Z,7.40
2023-01-12T00:57:22.981Z,7.50
2023-01-12T01:01:24.825Z,7.50
2023-01-12T01:05:26.649Z,7.40
2023-01-12T01:09:29.494Z,7.40
2023-01-12T01:13:31.319Z,7.40
2023-01-12T01:17:33.395Z,7.50
2023-01-12T01:21:35.192Z,7.50
2023-01-12T01:25:36.976Z,7.60
2023-01-12T01:29:38.776Z,7.60
2023-01-12T01:33:40.780Z,7.60
2023-01-12T01:37:42.522Z,7.60
2023-01-12T01:41:44.331Z,7.70
2023-01-12T01:45:50.958Z,7.70
2023-01-12T01:49:54.634Z,7.80
2023-01-12T01:53:56.381Z,7.80
2023-01-12T01:58:03.444Z,7.70
2023-01-12T02:02:05.351Z,7.70
2023-01-12T02:06:07.358Z,7.80
2023-01-12T02:10:09.857Z,7.80
2023-01-12T02:14:30.464Z,7.70
2023-01-12T02:18:38.664Z,7.70
2023-01-12T02:23:19.497Z,7.70
2023-01-12T02:27:35.892Z,7.60
2023-01-12T02:32:02.848Z,7.60
2023-01-12T02:36:37.728Z,7.50
2023-01-12T02:41:03.096Z,7.50
2023-01-12T02:45:22.270Z,7.40
2023-01-12T02:49:24.061Z,7.30
2023-01-12T02:53:36.144Z,7.30
2023-01-12T02:57:37.895Z,7.30
2023-01-12T03:01:39.889Z,7.30
2023-01-12T03:05:42.321Z,7.30
2023-01-12T03:09:48.015Z,7.20
2023-01-12T03:13:57.507Z,7.20
2023-01-12T03:18:04.069Z,7.20
2023-01-12T03:22:08.151Z,7.20
2023-01-12T03:26:11.380Z,7.20
2023-01-12T03:30:20.045Z,7.20
2023-01-12T03:34:21.828Z,7.30
2023-01-12T03:38:58.818Z,7.30
2023-01-12T03:43:16.104Z,7.40
2023-01-12T03:47:24.477Z,7.40
2023-01-12T03:51:33.131Z,7.50
2023-01-12T03:55:40.994Z,7.50
2023-01-12T03:59:43.301Z,7.50
2023-01-12T04:03:48.122Z,7.60
2023-01-12T04:07:49.903Z,7.70
2023-01-12T04:12:10.352Z,7.70
2023-01-12T04:16:12.237Z,7.80
2023-01-12T04:20:14.540Z,7.80
2023-01-12T04:24:16.247Z,7.80
2023-01-12T04:28:18.511Z,7.80
2023-01-12T04:32:20.724Z,7.90
2023-01-12T04:36:22.471Z,7.90
2023-01-12T04:40:25.112Z,8.00
2023-01-12T04:44:26.918Z,8.00
2023-01-12T04:48:28.696Z,8.00
2023-01-12T04:52:30.432Z,8.10
2023-01-12T04:56:32.443Z,8.10
2023-01-12T05:00:34.422Z,8.20
2023-01-12T05:04:36.203Z,8.20
2023-01-12T05:08:56.821Z,8.20
2023-01-12T05:12:58.525Z,8.30
2023-01-12T05:17:00.342Z,8.30
2023-01-12T05:21:13.150Z,8.30
2023-01-12T05:25:15.854Z,8.30
2023-01-12T05:29:17.713Z,8.30
2023-01-12T05:33:20.160Z,8.30
2023-01-12T05:37:21.903Z,8.30
2023-01-12T05:41:23.619Z,8.30
2023-01-12T05:45:25.407Z,8.30
2023-01-12T05:49:27.150Z,8.30
2023-01-12T05:53:29.072Z,8.30
2023-01-12T05:57:31.190Z,8.30
2023-01-12T06:01:33.276Z,8.30
2023-01-12T06:05:35.024Z,8.30
2023-01-12T06:09:36.800Z,8.30
2023-01-12T06:14:04.507Z,8.30
2023-01-12T06:18:06.431Z,8.30
2023-01-12T06:22:18.668Z,8.30
2023-01-12T06:26:20.739Z,8.30
2023-01-12T06:30:36.809Z,8.30
2023-01-12T06:34:38.744Z,8.30
2023-01-12T06:38:48.350Z,8.20
2023-01-12T06:42:50.202Z,8.30
2023-01-12T06:46:52.166Z,8.30
2023-01-12T06:50:59.315Z,8.30
2023-01-12T06:55:01.221Z,8.30
2023-01-12T06:59:03.023Z,8.40
2023-01-12T07:03:04.812Z,8.30
2023-01-12T07:07:07.517Z,8.40
2023-01-12T07:11:09.945Z,8.40
2023-01-12T07:15:11.822Z,8.40
2023-01-12T07:19:13.690Z,8.50
2023-01-12T07:23:15.397Z,8.50
2023-01-12T07:27:17.201Z,8.60
2023-01-12T07:31:19.524Z,8.60
2023-01-12T07:35:21.856Z,8.70
2023-01-12T07:39:23.868Z,8.80
2023-01-12T07:43:25.656Z,8.90
2023-01-12T07:47:28.064Z,9.00
2023-01-12T07:51:30.212Z,9.20
2023-01-12T07:55:32.094Z,9.30
2023-01-12T07:59:35.108Z,9.40
2023-01-12T08:03:37.194Z,9.50
2023-01-12T08:07:40.002Z,9.60
2023-01-12T08:11:42.356Z,9.60
2023-01-12T08:15:47.260Z,9.70
2023-01-12T08:19:55.936Z,9.80
2023-01-12T08:23:59.231Z,9.80
2023-01-12T08:28:03.240Z,9.80
2023-01-12T08:36:10.090Z,10.00
2023-01-12T08:40:12.467Z,10.10
2023-01-12T08:44:15.361Z,10.10
2023-01-12T08:48:19.733Z,10.20
2023-01-12T08:52:21.634Z,10.30
2023-01-12T08:56:23.483Z,10.40
2023-01-12T09:00:26.260Z,10.40
2023-01-12T09:04:28.064Z,10.50
2023-01-12T09:08:29.949Z,10.60
2023-01-12T09:12:31.777Z,10.60
2023-01-12T09:16:33.854Z,10.60
2023-01-12T09:20:35.645Z,10.60
2023-01-12T09:24:37.430Z,10.70
2023-01-12T09:28:39.213Z,10.70
2023-01-12T09:32:41.078Z,10.70
2023-01-12T09:36:42.927Z,10.80
2023-01-12T09:40:44.698Z,10.70
2023-01-12T09:45:07.330Z,10.70
2023-01-12T09:49:09.043Z,10.80
2023-01-12T09:53:14.610Z,10.80
2023-01-12T09:57:41.313Z,10.70
2023-01-12T10:01:43.188Z,10.80
2023-01-12T10:05:53.349Z,10.70
2023-01-12T10:09:55.530Z,10.70
2023-01-12T10:14:13.111Z,10.80
2023-01-12T10:18:23.525Z,10.80
2023-01-12T10:22:47.654Z,10.90
2023-01-12T10:27:00.819Z,10.90
2023-01-12T10:31:02.947Z,10.90
2023-01-12T10:35:05.333Z,11.00
2023-01-12T10:39:36.054Z,10.90
2023-01-12T10:43:39.484Z,11.00
2023-01-12T10:47:43.116Z,11.00
2023-01-12T10:51:57.281Z,11.00
2023-01-12T10:55:59.266Z,11.00
2023-01-12T11:00:02.779Z,11.00
2023-01-12T11:04:07.407Z,11.00
2023-01-12T11:08:26.354Z,11.00
2023-01-12T11:12:38.043Z,11.00
2023-01-12T11:16:46.858Z,11.00
2023-01-12T11:20:54.476Z,11.00
2023-01-12T11:25:11.121Z,11.00
2023-01-12T11:30:02.849Z,11.00
2023-01-12T11:34:18.186Z,11.00
2023-01-12T11:38:40.808Z,10.90
2023-01-12T11:43:01.117Z,10.90
2023-01-12T11:47:09.561Z,10.90
2023-01-12T11:51:13.023Z,10.90
2023-01-12T11:55:16.548Z,10.80
2023-01-12T11:59:33.791Z,10.70
2023-01-12T12:03:46.543Z,10.70
2023-01-12T12:08:21.543Z,10.60
2023-01-12T12:12:41.337Z,10.60
2023-01-12T12:17:16.998Z,10.60
2023-01-12T12:21:30.899Z,10.50
2023-01-12T12:26:09.737Z,10.40
2023-01-12T12:30:26.809Z,10.40
2023-01-12T12:34:56.921Z,10.30
2023-01-12T12:39:49.769Z,10.20
2023-01-12T12:44:45.758Z,10.10
2023-01-12T12:49:07.421Z,10.10
2023-01-12T12:53:28.235Z,9.90
2023-01-12T12:57:30.542Z,9.90
2023-01-12T13:01:32.356Z,9.90
2023-01-12T13:05:47.169Z,9.80
2023-01-12T13:09:49.517Z,9.80
2023-01-12T13:14:01.807Z,9.80
2023-01-12T13:18:04.662Z,9.70
2023-01-12T13:22:32.254Z,9.70
2023-01-12T13:26:34.907Z,9.70
2023-01-12T13:30:43.242Z,9.70
2023-01-12T13:34:46.461Z,9.70
2023-01-12T13:38:53.947Z,9.70
2023-01-12T13:43:16.249Z,9.70
2023-01-12T13:47:31.688Z,9.70
2023-01-12T13:51:39.135Z,9.70
2023-01-12T13:55:40.950Z,9.70
2023-01-12T14:00:08.803Z,9.70
2023-01-12T14:04:22.751Z,9.70
2023-01-12T14:08:52.064Z,9.70
2023-01-12T14:13:22.107Z,9.80
2023-01-12T14:17:47.645Z,9.80
2023-01-12T14:21:57.771Z,9.80
2023-01-12T14:26:09.854Z,9.80
2023-01-12T14:30:12.864Z,9.80
2023-01-12T14:34:35.525Z,9.80
2023-01-12T14:38:38.769Z,9.90
2023-01-12T14:42:58.918Z,9.80
2023-01-12T14:47:00.730Z,9.80
2023-01-12T14:51:26.978Z,9.80
2023-01-12T14:55:41.952Z,9.90
2023-01-12T14:59:45.588Z,9.90
2023-01-12T15:03:49.089Z,9.90
2023-01-12T15:07:58.895Z,10.00
2023-01-12T15:12:32.187Z,10.00
2023-01-12T15:16:54.039Z,10.00
2023-01-12T15:21:14.441Z,10.10
2023-01-12T15:25:36.066Z,10.00
2023-01-12T15:29:37.882Z,10.00
2023-01-12T15:33:39.719Z,10.10
2023-01-12T15:37:41.549Z,10.10
2023-01-12T15:42:02.089Z,10.10
2023-01-12T15:46:03.930Z,10.20
2023-01-12T15:50:06.948Z,10.20
2023-01-12T15:54:10.314Z,10.20
2023-01-12T15:58:12.210Z,10.20
2023-01-12T16:02:36.920Z,10.20
2023-01-12T16:06:38.739Z,10.20
2023-01-12T16:11:00.544Z,10.20
2023-01-12T16:15:06.243Z,10.20
2023-01-12T16:19:09.531Z,10.30
2023-01-12T16:23:11.434Z,10.20
2023-01-12T16:27:13.227Z,10.20
2023-01-12T16:31:15.234Z,10.30
2023-01-12T16:35:20.933Z,10.20
2023-01-12T16:39:24.748Z,10.30
2023-01-12T16:43:26.623Z,10.20
2023-01-12T16:47:31.120Z,10.30
2023-01-12T16:51:44.244Z,10.20
2023-01-12T16:55:46.229Z,10.30
2023-01-12T16:59:51.011Z,10.40
2023-01-12T17:03:57.750Z,10.40
2023-01-12T17:08:04.555Z,10.40
2023-01-12T17:12:06.953Z,10.50
2023-01-12T17:16:17.665Z,10.50
2023-01-12T17:20:22.779Z,10.50
2023-01-12T17:24:32.914Z,10.60
2023-01-12T17:28:35.105Z,10.50
2023-01-12T17:32:38.464Z,10.50
2023-01-12T17:36:53.031Z,10.50
2023-01-12T17:40:55.026Z,10.50
2023-01-12T17:45:00.050Z,10.60
2023-01-12T17:49:09.801Z,10.60
2023-01-12T17:53:14.349Z,10.60
2023-01-12T17:57:22.636Z,10.60
2023-01-12T18:01:34.998Z,10.70
2023-01-12T18:05:44.589Z,10.70
2023-01-12T18:09:46.815Z,10.70
2023-01-12T18:13:53.099Z,10.70
2023-01-12T18:17:57.661Z,10.70
2023-01-12T18:21:59.912Z,10.80
2023-01-12T18:26:03.754Z,10.80
2023-01-12T18:30:13.855Z,10.80
2023-01-12T18:34:19.437Z,10.90
2023-01-12T18:38:21.196Z,10.90
2023-01-12T18:42:44.563Z,10.90
2023-01-12T18:47:08.863Z,10.90
2023-01-12T18:51:29.369Z,10.90
2023-01-12T18:55:37.203Z,10.90
2023-01-12T18:59:41.709Z,10.90
2023-01-12T19:03:48.487Z,10.90
2023-01-12T19:08:10.644Z,10.90
2023-01-12T19:12:23.940Z,10.90
2023-01-12T19:16:46.539Z,10.90
2023-01-12T19:20:48.520Z,10.80
2023-01-12T19:25:09.243Z,10.90
2023-01-12T19:29:13.979Z,10.90
2023-01-12T19:33:18.758Z,11.00
2023-01-12T19:37:28.513Z,11.00
2023-01-12T19:41:49.163Z,11.00
2023-01-12T19:46:01.499Z,11.00
2023-01-12T19:50:07.704Z,11.00
2023-01-12T19:54:09.522Z,11.00
2023-01-12T19:58:11.573Z,11.00
2023-01-12T20:02:23.221Z,11.00
2023-01-12T20:06:25.275Z,11.00
2023-01-12T20:10:27.192Z,11.10
2023-01-12T20:14:29.675Z,11.10
2023-01-12T20:18:44.959Z,11.10
2023-01-12T20:22:52.917Z,11.10
2023-01-12T20:26:54.973Z,11.10
2023-01-12T20:30:59.975Z,11.00
2023-01-12T20:35:08.321Z,11.00
2023-01-12T20:39:15.654Z,11.10
2023-01-12T20:43:26.407Z,11.10
2023-01-12T20:47:34.018Z,11.20
2023-01-12T20:51:35.894Z,11.20
2023-01-12T20:55:51.934Z,11.20
2023-01-12T20:59:54.603Z,11.20
2023-01-12T21:03:56.521Z,11.30
2023-01-12T21:08:07.338Z,11.30
2023-01-12T21:12:09.695Z,11.30
2023-01-12T21:16:18.180Z,11.30
2023-01-12T21:20:20.225Z,11.30
2023-01-12T21:24:22.966Z,11.30
2023-01-12T21:28:31.122Z,11.30
2023-01-12T21:32:33.015Z,11.30
2023-01-12T21:36:34.790Z,11.30
2023-01-12T21:40:37.379Z,11.30
2023-01-12T21:44:47.801Z,11.30
2023-01-12T21:48:49.599Z,11.40
2023-01-12T21:52:51.374Z,11.30
2023-01-12T21:56:53.219Z,11.40
2023-01-12T22:00:55.965Z,11.40
2023-01-12T22:04:57.840Z,11.40
2023-01-12T22:08:59.582Z,11.40
2023-01-12T22:13:05.692Z,11.40
2023-01-12T22:17:07.740Z,11.40
2023-01-12T22:21:09.657Z,11.50
2023-01-12T22:25:13.119Z,11.50
2023-01-12T22:29:14.970Z,11.40
2023-01-12T22:33:16.784Z,11.50
2023-01-12T22:37:22.353Z,11.50
2023-01-12T22:41:26.945Z,11.50
2023-01-12T22:45:28.921Z,11.40
2023-01-12T22:49:30.761Z,11.40
2023-01-12T22:53:32.896Z,11.40
2023-01-12T22:57:34.860Z,11.40
2023-01-12T23:01:36.737Z,11.40
2023-01-12T23:05:49.990Z,11.40
2023-01-12T23:09:51.810Z,11.40
2023-01-12T23:13:55.080Z,11.40
2023-01-12T23:17:59.618Z,11.50
2023-01-12T23:22:01.618Z,11.50
2023-01-12T23:26:11.159Z,11.50
2023-01-12T23:30:13.285Z,11.50
2023-01-12T23:34:15.341Z,11.50
2023-01-12T23:38:17.422Z,11.50
2023-01-12T23:42:19.356Z,11.40
2023-01-12T23:46:22.635Z,11.40
2023-01-12T23:50:25.122Z,11.50
2023-01-12T23:54:27.192Z,11.50
2023-01-12T23:58:29.038Z,11.50
